sensor_id;sensor_type;location;lat;lon;timestamp;pressure;altitude;pressure_sealevel;temperature;humidity
15750;BME280;7976;52.526;13.326;2022-07-24T00:01:03;101522.63;;;18.05;62.67
15750;BME280;7976;52.526;13.326;2022-07-24T00:03:30;101521.09;;;18.01;62.67
15750;BME280;7976;52.526;13.326;2022-07-24T00:05:57;101521.31;;;17.97;62.92
15750;BME280;7976;52.526;13.326;2022-07-24T00:08:23;101521.31;;;17.97;63.27
15750;BME280;7976;52.526;13.326;2022-07-24T00:10:50;101520.56;;;17.95;63.42
15750;BME280;7976;52.526;13.326;2022-07-24T00:13:17;101527.75;;;17.93;63.66
15750;BME280;7976;52.526;13.326;2022-07-24T00:15:44;101530.47;;;17.91;63.69
15750;BME280;7976;52.526;13.326;2022-07-24T00:18:13;101532.53;;;17.86;63.99
15750;BME280;7976;52.526;13.326;2022-07-24T00:20:40;101535.25;;;17.85;64.02
15750;BME280;7976;52.526;13.326;2022-07-24T00:23:07;101532.94;;;17.79;63.93
15750;BME280;7976;52.526;13.326;2022-07-24T00:25:34;101528.59;;;17.78;64.15
15750;BME280;7976;52.526;13.326;2022-07-24T00:28:01;101528.75;;;17.75;64.35
15750;BME280;7976;52.526;13.326;2022-07-24T00:30:27;101536.78;;;17.73;64.49
15750;BME280;7976;52.526;13.326;2022-07-24T00:32:54;101544.94;;;17.69;64.65
15750;BME280;7976;52.526;13.326;2022-07-24T00:35:22;101543.34;;;17.66;64.92
15750;BME280;7976;52.526;13.326;2022-07-24T00:37:49;101540.00;;;17.63;64.85
15750;BME280;7976;52.526;13.326;2022-07-24T00:40:16;101545.28;;;17.63;64.65
15750;BME280;7976;52.526;13.326;2022-07-24T00:42:43;101540.91;;;17.62;65.01
15750;BME280;7976;52.526;13.326;2022-07-24T00:45:10;101541.94;;;17.59;64.91
15750;BME280;7976;52.526;13.326;2022-07-24T00:47:37;101541.88;;;17.61;64.86
15750;BME280;7976;52.526;13.326;2022-07-24T00:50:06;101549.72;;;17.62;65.07
15750;BME280;7976;52.526;13.326;2022-07-24T00:52:34;101541.88;;;17.61;64.91
15750;BME280;7976;52.526;13.326;2022-07-24T00:55:01;101547.16;;;17.61;65.09
15750;BME280;7976;52.526;13.326;2022-07-24T00:57:29;101545.47;;;17.60;65.21
15750;BME280;7976;52.526;13.326;2022-07-24T00:59:57;101542.03;;;17.58;64.90
15750;BME280;7976;52.526;13.326;2022-07-24T01:02:24;101545.69;;;17.55;65.21
15750;BME280;7976;52.526;13.326;2022-07-24T01:04:51;101551.84;;;17.56;65.22
15750;BME280;7976;52.526;13.326;2022-07-24T01:07:18;101545.78;;;17.53;65.41
15750;BME280;7976;52.526;13.326;2022-07-24T01:09:47;101554.66;;;17.52;65.35
15750;BME280;7976;52.526;13.326;2022-07-24T01:12:14;101557.38;;;17.51;65.39
15750;BME280;7976;52.526;13.326;2022-07-24T01:14:41;101550.44;;;17.48;65.56
15750;BME280;7976;52.526;13.326;2022-07-24T01:17:08;101554.81;;;17.49;65.92
15750;BME280;7976;52.526;13.326;2022-07-24T01:19:35;101559.34;;;17.47;65.75
15750;BME280;7976;52.526;13.326;2022-07-24T01:22:03;101549.81;;;17.43;65.85
15750;BME280;7976;52.526;13.326;2022-07-24T01:24:30;101554.91;;;17.48;65.97
15750;BME280;7976;52.526;13.326;2022-07-24T01:26:57;101554.25;;;17.43;65.97
15750;BME280;7976;52.526;13.326;2022-07-24T01:29:24;101552.44;;;17.43;65.90
15750;BME280;7976;52.526;13.326;2022-07-24T01:31:50;101551.53;;;17.44;66.20
15750;BME280;7976;52.526;13.326;2022-07-24T01:34:17;101554.19;;;17.44;66.12
15750;BME280;7976;52.526;13.326;2022-07-24T01:36:44;101558.56;;;17.45;66.30
15750;BME280;7976;52.526;13.326;2022-07-24T01:39:12;101551.53;;;17.44;66.17
15750;BME280;7976;52.526;13.326;2022-07-24T01:41:39;101563.13;;;17.42;65.97
15750;BME280;7976;52.526;13.326;2022-07-24T01:44:06;101558.16;;;17.36;66.14
15750;BME280;7976;52.526;13.326;2022-07-24T01:46:33;101560.72;;;17.37;66.30
15750;BME280;7976;52.526;13.326;2022-07-24T01:49:00;101559.84;;;17.37;66.11
15750;BME280;7976;52.526;13.326;2022-07-24T01:51:27;101559.16;;;17.33;66.24
15750;BME280;7976;52.526;13.326;2022-07-24T01:53:53;101564.63;;;17.30;66.40
15750;BME280;7976;52.526;13.326;2022-07-24T01:56:22;101566.66;;;17.25;66.51
15750;BME280;7976;52.526;13.326;2022-07-24T01:58:48;101568.50;;;17.23;66.63
15750;BME280;7976;52.526;13.326;2022-07-24T02:01:15;101566.66;;;17.25;66.52
15750;BME280;7976;52.526;13.326;2022-07-24T02:03:42;101567.72;;;17.21;66.97
15750;BME280;7976;52.526;13.326;2022-07-24T02:06:09;101573.09;;;17.20;66.85
15750;BME280;7976;52.526;13.326;2022-07-24T02:08:36;101570.59;;;17.17;66.94
15750;BME280;7976;52.526;13.326;2022-07-24T02:11:03;101563.81;;;17.11;67.09
15750;BME280;7976;52.526;13.326;2022-07-24T02:13:31;101564.53;;;17.15;67.25
15750;BME280;7976;52.526;13.326;2022-07-24T02:15:58;101563.69;;;17.14;67.57
15750;BME280;7976;52.526;13.326;2022-07-24T02:18:26;101561.13;;;17.13;67.33
15750;BME280;7976;52.526;13.326;2022-07-24T02:20:53;101559.41;;;17.12;67.20
15750;BME280;7976;52.526;13.326;2022-07-24T02:23:20;101562.13;;;17.10;67.58
15750;BME280;7976;52.526;13.326;2022-07-24T02:25:48;101557.00;;;17.07;67.79
15750;BME280;7976;52.526;13.326;2022-07-24T02:28:17;101565.94;;;17.05;67.82
15750;BME280;7976;52.526;13.326;2022-07-24T02:30:45;101560.81;;;17.02;68.02
15750;BME280;7976;52.526;13.326;2022-07-24T02:33:12;101562.66;;;17.00;68.24
15750;BME280;7976;52.526;13.326;2022-07-24T02:35:39;101558.41;;;16.97;68.29
15750;BME280;7976;52.526;13.326;2022-07-24T02:38:06;101559.31;;;16.96;68.08
15750;BME280;7976;52.526;13.326;2022-07-24T02:40:33;101555.91;;;16.94;68.16
15750;BME280;7976;52.526;13.326;2022-07-24T02:43:00;101558.47;;;16.96;68.20
15750;BME280;7976;52.526;13.326;2022-07-24T02:45:27;101564.69;;;16.95;68.14
15750;BME280;7976;52.526;13.326;2022-07-24T02:47:57;101567.41;;;16.93;68.15
15750;BME280;7976;52.526;13.326;2022-07-24T02:50:29;101559.72;;;16.89;68.09
15750;BME280;7976;52.526;13.326;2022-07-24T02:52:56;101568.63;;;16.86;68.38
15750;BME280;7976;52.526;13.326;2022-07-24T02:55:23;101575.81;;;16.84;68.16
15750;BME280;7976;52.526;13.326;2022-07-24T02:57:51;101574.25;;;16.80;68.23
15750;BME280;7976;52.526;13.326;2022-07-24T03:00:18;101571.69;;;16.79;68.22
15750;BME280;7976;52.526;13.326;2022-07-24T03:02:45;101576.25;;;16.75;68.33
15750;BME280;7976;52.526;13.326;2022-07-24T03:05:14;101564.25;;;16.68;68.51
15750;BME280;7976;52.526;13.326;2022-07-24T03:07:41;101583.41;;;16.73;68.36
15750;BME280;7976;52.526;13.326;2022-07-24T03:10:11;101588.84;;;16.70;68.59
15750;BME280;7976;52.526;13.326;2022-07-24T03:12:38;101585.41;;;16.68;68.89
15750;BME280;7976;52.526;13.326;2022-07-24T03:15:07;101587.16;;;16.69;68.69
15750;BME280;7976;52.526;13.326;2022-07-24T03:17:34;101592.44;;;16.69;68.71
15750;BME280;7976;52.526;13.326;2022-07-24T03:20:01;101589.78;;;16.69;68.57
15750;BME280;7976;52.526;13.326;2022-07-24T03:22:29;101590.69;;;16.68;68.55
15750;BME280;7976;52.526;13.326;2022-07-24T03:24:56;101603.13;;;16.66;68.77
15750;BME280;7976;52.526;13.326;2022-07-24T03:27:23;101600.56;;;16.65;68.64
15750;BME280;7976;52.526;13.326;2022-07-24T03:29:50;101604.22;;;16.62;68.83
15750;BME280;7976;52.526;13.326;2022-07-24T03:32:17;101600.88;;;16.59;68.97
15750;BME280;7976;52.526;13.326;2022-07-24T03:34:44;101606.47;;;16.53;69.07
15750;BME280;7976;52.526;13.326;2022-07-24T03:37:11;101603.88;;;16.51;68.85
15750;BME280;7976;52.526;13.326;2022-07-24T03:39:39;101599.59;;;16.49;69.25
15750;BME280;7976;52.526;13.326;2022-07-24T03:42:06;101596.00;;;16.50;69.07
15750;BME280;7976;52.526;13.326;2022-07-24T03:44:33;101604.09;;;16.47;69.30
15750;BME280;7976;52.526;13.326;2022-07-24T03:47:00;101611.09;;;16.48;69.04
15750;BME280;7976;52.526;13.326;2022-07-24T03:49:26;101604.97;;;16.47;69.17
15750;BME280;7976;52.526;13.326;2022-07-24T03:51:53;101612.81;;;16.49;69.16
15750;BME280;7976;52.526;13.326;2022-07-24T03:54:20;101622.44;;;16.50;69.10
15750;BME280;7976;52.526;13.326;2022-07-24T03:56:49;101623.47;;;16.47;69.31
15750;BME280;7976;52.526;13.326;2022-07-24T03:59:16;101617.50;;;16.42;69.25
15750;BME280;7976;52.526;13.326;2022-07-24T04:01:43;101618.41;;;16.41;69.52
15750;BME280;7976;52.526;13.326;2022-07-24T04:04:10;101628.16;;;16.41;69.38
15750;BME280;7976;52.526;13.326;2022-07-24T04:06:36;101620.13;;;16.42;69.42
15750;BME280;7976;52.526;13.326;2022-07-24T04:09:04;101618.38;;;16.43;69.28
15750;BME280;7976;52.526;13.326;2022-07-24T04:11:32;101622.72;;;16.44;69.48
15750;BME280;7976;52.526;13.326;2022-07-24T04:14:00;101611.44;;;16.40;69.24
15750;BME280;7976;52.526;13.326;2022-07-24T04:16:28;101616.56;;;16.43;69.66
15750;BME280;7976;52.526;13.326;2022-07-24T04:18:55;101627.13;;;16.43;69.36
15750;BME280;7976;52.526;13.326;2022-07-24T04:21:21;101620.41;;;16.36;69.50
15750;BME280;7976;52.526;13.326;2022-07-24T04:23:48;101628.97;;;16.41;69.63
15750;BME280;7976;52.526;13.326;2022-07-24T04:26:15;101617.44;;;16.44;69.69
15750;BME280;7976;52.526;13.326;2022-07-24T04:28:43;101625.44;;;16.42;69.59
15750;BME280;7976;52.526;13.326;2022-07-24T04:31:12;101618.28;;;16.44;69.68
15750;BME280;7976;52.526;13.326;2022-07-24T04:33:39;101630.38;;;16.50;69.61
15750;BME280;7976;52.526;13.326;2022-07-24T04:36:06;101629.38;;;16.52;69.51
15750;BME280;7976;52.526;13.326;2022-07-24T04:38:33;101629.22;;;16.55;69.56
15750;BME280;7976;52.526;13.326;2022-07-24T04:41:00;101624.75;;;16.57;69.50
15750;BME280;7976;52.526;13.326;2022-07-24T04:43:27;101633.47;;;16.59;69.71
15750;BME280;7976;52.526;13.326;2022-07-24T04:45:54;101636.84;;;16.61;69.71
15750;BME280;7976;52.526;13.326;2022-07-24T04:48:23;101637.66;;;16.63;69.57
15750;BME280;7976;52.526;13.326;2022-07-24T04:50:50;101647.25;;;16.66;69.79
15750;BME280;7976;52.526;13.326;2022-07-24T04:53:18;101640.84;;;16.70;69.98
15750;BME280;7976;52.526;13.326;2022-07-24T04:55:45;101645.00;;;16.75;70.10
15750;BME280;7976;52.526;13.326;2022-07-24T04:58:12;101633.28;;;16.81;69.78
15750;BME280;7976;52.526;13.326;2022-07-24T05:00:39;101640.00;;;16.88;70.03
15750;BME280;7976;52.526;13.326;2022-07-24T05:03:05;101635.25;;;16.94;69.95
15750;BME280;7976;52.526;13.326;2022-07-24T05:05:34;101628.06;;;16.96;69.87
15750;BME280;7976;52.526;13.326;2022-07-24T05:08:00;101630.28;;;17.05;69.56
15750;BME280;7976;52.526;13.326;2022-07-24T05:10:27;101631.69;;;17.12;69.51
15750;BME280;7976;52.526;13.326;2022-07-24T05:12:54;101629.59;;;17.19;69.20
15750;BME280;7976;52.526;13.326;2022-07-24T05:15:21;101629.34;;;17.23;69.06
15750;BME280;7976;52.526;13.326;2022-07-24T05:17:48;101619.56;;;17.25;68.85
15750;BME280;7976;52.526;13.326;2022-07-24T05:20:15;101613.41;;;17.25;68.94
15750;BME280;7976;52.526;13.326;2022-07-24T05:22:43;101625.41;;;17.32;68.64
15750;BME280;7976;52.526;13.326;2022-07-24T05:25:10;101621.06;;;17.31;68.40
15750;BME280;7976;52.526;13.326;2022-07-24T05:27:37;101632.25;;;17.36;68.40
15750;BME280;7976;52.526;13.326;2022-07-24T05:30:07;101630.31;;;17.39;67.91
15750;BME280;7976;52.526;13.326;2022-07-24T05:32:34;101637.22;;;17.42;67.56
15750;BME280;7976;52.526;13.326;2022-07-24T05:35:01;101632.69;;;17.45;67.29
15750;BME280;7976;52.526;13.326;2022-07-24T05:37:28;101621.09;;;17.48;67.11
15750;BME280;7976;52.526;13.326;2022-07-24T05:39:56;101628.63;;;17.56;67.03
15750;BME280;7976;52.526;13.326;2022-07-24T05:42:23;101623.25;;;17.57;66.91
15750;BME280;7976;52.526;13.326;2022-07-24T05:44:49;101619.44;;;17.63;66.71
15750;BME280;7976;52.526;13.326;2022-07-24T05:47:16;101623.63;;;17.67;66.78
15750;BME280;7976;52.526;13.326;2022-07-24T05:49:43;101625.19;;;17.71;66.58
15750;BME280;7976;52.526;13.326;2022-07-24T05:52:10;101624.09;;;17.75;66.39
15750;BME280;7976;52.526;13.326;2022-07-24T05:54:36;101617.84;;;17.76;65.83
15750;BME280;7976;52.526;13.326;2022-07-24T05:57:05;101619.06;;;17.86;65.54
15750;BME280;7976;52.526;13.326;2022-07-24T05:59:32;101627.63;;;17.91;65.24
15750;BME280;7976;52.526;13.326;2022-07-24T06:01:58;101630.09;;;17.94;65.50
15750;BME280;7976;52.526;13.326;2022-07-24T06:04:30;101629.88;;;17.98;65.25
15750;BME280;7976;52.526;13.326;2022-07-24T06:06:57;101629.63;;;18.03;65.20
15750;BME280;7976;52.526;13.326;2022-07-24T06:09:24;101634.44;;;18.12;64.84
15750;BME280;7976;52.526;13.326;2022-07-24T06:11:51;101623.69;;;18.15;64.88
15750;BME280;7976;52.526;13.326;2022-07-24T06:14:19;101630.69;;;18.16;64.88
15750;BME280;7976;52.526;13.326;2022-07-24T06:16:46;101635.81;;;18.19;64.53
15750;BME280;7976;52.526;13.326;2022-07-24T06:19:12;101632.25;;;18.20;64.22
15750;BME280;7976;52.526;13.326;2022-07-24T06:21:39;101636.50;;;18.22;64.41
15750;BME280;7976;52.526;13.326;2022-07-24T06:24:06;101627.38;;;18.28;64.01
15750;BME280;7976;52.526;13.326;2022-07-24T06:26:33;101628.22;;;18.28;64.21
15750;BME280;7976;52.526;13.326;2022-07-24T06:29:00;101624.13;;;18.38;63.71
15750;BME280;7976;52.526;13.326;2022-07-24T06:31:28;101622.88;;;18.45;63.69
15750;BME280;7976;52.526;13.326;2022-07-24T06:33:55;101619.03;;;18.51;63.63
15750;BME280;7976;52.526;13.326;2022-07-24T06:36:23;101618.63;;;18.58;63.41
15750;BME280;7976;52.526;13.326;2022-07-24T06:38:50;101619.22;;;18.63;63.53
15750;BME280;7976;52.526;13.326;2022-07-24T06:41:16;101623.22;;;18.70;63.33
15750;BME280;7976;52.526;13.326;2022-07-24T06:43:44;101630.75;;;18.78;63.05
15750;BME280;7976;52.526;13.326;2022-07-24T06:46:10;101628.78;;;18.82;63.07
15750;BME280;7976;52.526;13.326;2022-07-24T06:48:38;101631.16;;;18.86;62.97
15750;BME280;7976;52.526;13.326;2022-07-24T06:51:06;101633.72;;;18.88;62.66
15750;BME280;7976;52.526;13.326;2022-07-24T06:53:32;101623.03;;;18.89;62.58
15750;BME280;7976;52.526;13.326;2022-07-24T06:56:01;101622.69;;;18.95;62.45
15750;BME280;7976;52.526;13.326;2022-07-24T06:58:28;101630.19;;;19.03;62.18
15750;BME280;7976;52.526;13.326;2022-07-24T07:00:54;101626.16;;;19.11;62.52
15750;BME280;7976;52.526;13.326;2022-07-24T07:03:21;101627.59;;;19.17;62.28
15750;BME280;7976;52.526;13.326;2022-07-24T07:05:49;101626.31;;;19.24;61.92
15750;BME280;7976;52.526;13.326;2022-07-24T07:08:16;101635.56;;;19.32;61.68
15750;BME280;7976;52.526;13.326;2022-07-24T07:10:43;101638.34;;;19.45;61.54
15750;BME280;7976;52.526;13.326;2022-07-24T07:13:10;101643.13;;;19.54;61.18
15750;BME280;7976;52.526;13.326;2022-07-24T07:15:36;101635.44;;;19.63;61.24
15750;BME280;7976;52.526;13.326;2022-07-24T07:18:03;101632.06;;;19.75;61.14
15750;BME280;7976;52.526;13.326;2022-07-24T07:20:30;101636.97;;;19.81;60.59
15750;BME280;7976;52.526;13.326;2022-07-24T07:22:59;101628.72;;;19.86;60.47
15750;BME280;7976;52.526;13.326;2022-07-24T07:25:25;101628.16;;;19.95;59.96
15750;BME280;7976;52.526;13.326;2022-07-24T07:27:53;101627.50;;;20.06;59.79
15750;BME280;7976;52.526;13.326;2022-07-24T07:30:20;101635.09;;;20.12;59.19
15750;BME280;7976;52.526;13.326;2022-07-24T07:32:47;101626.03;;;20.16;59.07
15750;BME280;7976;52.526;13.326;2022-07-24T07:35:14;101631.13;;;20.19;58.74
15750;BME280;7976;52.526;13.326;2022-07-24T07:37:40;101628.38;;;20.20;58.26
15750;BME280;7976;52.526;13.326;2022-07-24T07:40:12;101624.59;;;20.24;58.50
15750;BME280;7976;52.526;13.326;2022-07-24T07:42:38;101626.00;;;20.30;58.06
15750;BME280;7976;52.526;13.326;2022-07-24T07:45:06;101625.63;;;20.36;58.08
15750;BME280;7976;52.526;13.326;2022-07-24T07:47:35;101619.78;;;20.43;57.58
15750;BME280;7976;52.526;13.326;2022-07-24T07:50:03;101622.75;;;20.53;57.53
15750;BME280;7976;52.526;13.326;2022-07-24T07:52:30;101620.22;;;20.64;57.40
15750;BME280;7976;52.526;13.326;2022-07-24T07:54:57;101620.59;;;20.72;56.68
15750;BME280;7976;52.526;13.326;2022-07-24T07:57:25;101614.97;;;20.76;56.74
15750;BME280;7976;52.526;13.326;2022-07-24T07:59:51;101618.28;;;20.80;56.13
15750;BME280;7976;52.526;13.326;2022-07-24T08:02:18;101619.03;;;20.82;55.75
15750;BME280;7976;52.526;13.326;2022-07-24T08:04:45;101620.56;;;20.86;55.18
15750;BME280;7976;52.526;13.326;2022-07-24T08:07:12;101621.97;;;20.91;55.48
15750;BME280;7976;52.526;13.326;2022-07-24T08:09:38;101611.78;;;20.98;54.90
15750;BME280;7976;52.526;13.326;2022-07-24T08:12:06;101612.34;;;21.03;55.05
15750;BME280;7976;52.526;13.326;2022-07-24T08:14:34;101612.03;;;21.07;54.56
15750;BME280;7976;52.526;13.326;2022-07-24T08:17:02;101615.13;;;21.14;54.23
15750;BME280;7976;52.526;13.326;2022-07-24T08:19:29;101611.97;;;21.22;54.44
15750;BME280;7976;52.526;13.326;2022-07-24T08:21:56;101609.94;;;21.25;53.54
15750;BME280;7976;52.526;13.326;2022-07-24T08:24:23;101605.16;;;21.30;53.05
15750;BME280;7976;52.526;13.326;2022-07-24T08:26:50;101608.88;;;21.40;53.06
15750;BME280;7976;52.526;13.326;2022-07-24T08:29:17;101612.75;;;21.49;52.69
15750;BME280;7976;52.526;13.326;2022-07-24T08:31:45;101612.13;;;21.58;52.66
15750;BME280;7976;52.526;13.326;2022-07-24T08:34:12;101607.22;;;21.64;52.10
15750;BME280;7976;52.526;13.326;2022-07-24T08:36:39;101611.72;;;21.76;51.97
15750;BME280;7976;52.526;13.326;2022-07-24T08:39:05;101603.00;;;21.87;52.11
15750;BME280;7976;52.526;13.326;2022-07-24T08:41:32;101600.53;;;21.96;51.75
15750;BME280;7976;52.526;13.326;2022-07-24T08:44:02;101599.34;;;22.00;51.59
15750;BME280;7976;52.526;13.326;2022-07-24T08:46:31;101599.66;;;22.08;51.36
15750;BME280;7976;52.526;13.326;2022-07-24T08:49:00;101593.03;;;22.14;51.41
15750;BME280;7976;52.526;13.326;2022-07-24T08:51:32;101600.72;;;22.18;50.61
15750;BME280;7976;52.526;13.326;2022-07-24T08:54:00;101599.53;;;22.22;50.36
15750;BME280;7976;52.526;13.326;2022-07-24T08:56:28;101600.16;;;22.26;50.89
15750;BME280;7976;52.526;13.326;2022-07-24T08:58:55;101600.34;;;22.35;50.68
15750;BME280;7976;52.526;13.326;2022-07-24T09:01:22;101598.31;;;22.39;51.08
15750;BME280;7976;52.526;13.326;2022-07-24T09:03:49;101597.25;;;22.42;51.12
15750;BME280;7976;52.526;13.326;2022-07-24T09:06:17;101592.44;;;22.47;51.29
15750;BME280;7976;52.526;13.326;2022-07-24T09:08:58;101594.34;;;22.57;50.43
15750;BME280;7976;52.526;13.326;2022-07-24T09:11:26;101599.84;;;22.67;49.83
15750;BME280;7976;52.526;13.326;2022-07-24T09:14:00;101600.72;;;22.67;49.49
15750;BME280;7976;52.526;13.326;2022-07-24T09:16:45;101597.59;;;22.73;49.71
15750;BME280;7976;52.526;13.326;2022-07-24T09:19:12;101596.28;;;22.79;49.44
15750;BME280;7976;52.526;13.326;2022-07-24T09:21:43;101592.91;;;22.88;49.88
15750;BME280;7976;52.526;13.326;2022-07-24T09:24:17;101593.94;;;22.98;50.26
15750;BME280;7976;52.526;13.326;2022-07-24T09:26:46;101605.13;;;23.03;49.67
15750;BME280;7976;52.526;13.326;2022-07-24T09:29:16;101595.94;;;23.07;49.80
15750;BME280;7976;52.526;13.326;2022-07-24T09:31:54;101590.00;;;23.14;48.96
15750;BME280;7976;52.526;13.326;2022-07-24T09:34:23;101588.31;;;23.24;49.06
15750;BME280;7976;52.526;13.326;2022-07-24T09:37:04;101585.84;;;23.34;48.78
15750;BME280;7976;52.526;13.326;2022-07-24T09:39:34;101589.84;;;23.39;48.69
15750;BME280;7976;52.526;13.326;2022-07-24T09:42:04;101582.25;;;23.46;49.18
15750;BME280;7976;52.526;13.326;2022-07-24T09:44:33;101579.81;;;23.54;48.72
15750;BME280;7976;52.526;13.326;2022-07-24T09:47:03;101588.84;;;23.64;48.70
15750;BME280;7976;52.526;13.326;2022-07-24T09:49:32;101593.69;;;23.70;49.03
15750;BME280;7976;52.526;13.326;2022-07-24T09:52:12;101589.31;;;23.80;48.31
15750;BME280;7976;52.526;13.326;2022-07-24T09:54:42;101590.56;;;23.87;47.85
15750;BME280;7976;52.526;13.326;2022-07-24T09:57:20;101589.84;;;23.96;48.31
15750;BME280;7976;52.526;13.326;2022-07-24T09:59:49;101585.72;;;24.03;48.24
15750;BME280;7976;52.526;13.326;2022-07-24T10:02:19;101589.13;;;24.05;47.93
15750;BME280;7976;52.526;13.326;2022-07-24T10:04:49;101594.00;;;24.11;48.44
15750;BME280;7976;52.526;13.326;2022-07-24T10:07:20;101585.72;;;24.14;47.43
15750;BME280;7976;52.526;13.326;2022-07-24T10:09:50;101588.41;;;24.14;47.50
15750;BME280;7976;52.526;13.326;2022-07-24T10:12:19;101595.44;;;24.15;47.75
15750;BME280;7976;52.526;13.326;2022-07-24T10:14:50;101593.38;;;24.19;47.76
15750;BME280;7976;52.526;13.326;2022-07-24T10:17:19;101575.59;;;24.29;47.44
15750;BME280;7976;52.526;13.326;2022-07-24T10:19:48;101581.06;;;24.38;47.18
15750;BME280;7976;52.526;13.326;2022-07-24T10:22:18;101571.28;;;24.48;46.97
15750;BME280;7976;52.526;13.326;2022-07-24T10:24:56;101576.91;;;24.56;46.34
15750;BME280;7976;52.526;13.326;2022-07-24T10:27:28;101570.28;;;24.60;45.91
15750;BME280;7976;52.526;13.326;2022-07-24T10:29:59;101567.47;;;24.62;46.52
15750;BME280;7976;52.526;13.326;2022-07-24T10:32:27;101556.50;;;24.65;45.99
15750;BME280;7976;52.526;13.326;2022-07-24T10:35:08;101555.19;;;24.70;45.84
15750;BME280;7976;52.526;13.326;2022-07-24T10:37:58;101551.31;;;24.74;45.81
15750;BME280;7976;52.526;13.326;2022-07-24T10:40:37;101549.09;;;24.80;45.47
15750;BME280;7976;52.526;13.326;2022-07-24T10:43:15;101547.34;;;24.90;45.59
15750;BME280;7976;52.526;13.326;2022-07-24T10:45:44;101554.84;;;24.96;45.11
15750;BME280;7976;52.526;13.326;2022-07-24T10:48:34;101546.78;;;25.07;45.43
15750;BME280;7976;52.526;13.326;2022-07-24T10:51:11;101553.28;;;25.14;45.44
15750;BME280;7976;52.526;13.326;2022-07-24T10:53:53;101547.28;;;25.21;44.62
15750;BME280;7976;52.526;13.326;2022-07-24T10:56:26;101548.53;;;25.17;44.09
15750;BME280;7976;52.526;13.326;2022-07-24T10:58:59;101554.22;;;25.24;44.47
15750;BME280;7976;52.526;13.326;2022-07-24T11:01:33;101552.72;;;25.31;43.91
15750;BME280;7976;52.526;13.326;2022-07-24T11:04:02;101556.34;;;25.41;44.06
15750;BME280;7976;52.526;13.326;2022-07-24T11:06:45;101549.19;;;25.51;44.30
15750;BME280;7976;52.526;13.326;2022-07-24T11:09:16;101549.06;;;25.52;44.20
15750;BME280;7976;52.526;13.326;2022-07-24T11:12:05;101554.75;;;25.59;44.41
15750;BME280;7976;52.526;13.326;2022-07-24T11:14:57;101549.13;;;25.62;43.93
15750;BME280;7976;52.526;13.326;2022-07-24T11:17:45;101550.69;;;25.64;44.00
15750;BME280;7976;52.526;13.326;2022-07-24T11:20:16;101532.63;;;25.66;44.38
15750;BME280;7976;52.526;13.326;2022-07-24T11:22:46;101536.63;;;25.72;44.20
15750;BME280;7976;52.526;13.326;2022-07-24T11:25:18;101540.56;;;25.77;44.25
15750;BME280;7976;52.526;13.326;2022-07-24T11:27:55;101528.59;;;25.81;43.45
15750;BME280;7976;52.526;13.326;2022-07-24T11:30:27;101531.88;;;25.85;43.33
15750;BME280;7976;52.526;13.326;2022-07-24T11:32:55;101535.00;;;25.90;43.64
15750;BME280;7976;52.526;13.326;2022-07-24T11:35:32;101521.03;;;25.96;43.60
15750;BME280;7976;52.526;13.326;2022-07-24T11:38:00;101517.84;;;26.02;43.65
15750;BME280;7976;52.526;13.326;2022-07-24T11:40:29;101520.38;;;26.04;43.80
15750;BME280;7976;52.526;13.326;2022-07-24T11:42:58;101508.66;;;26.05;43.54
15750;BME280;7976;52.526;13.326;2022-07-24T11:45:25;101516.56;;;26.06;43.39
15750;BME280;7976;52.526;13.326;2022-07-24T11:47:52;101504.28;;;26.04;42.91
15750;BME280;7976;52.526;13.326;2022-07-24T11:50:23;101510.47;;;26.04;43.03
15750;BME280;7976;52.526;13.326;2022-07-24T11:52:50;101504.28;;;26.04;42.97
15750;BME280;7976;52.526;13.326;2022-07-24T11:55:19;101502.19;;;26.07;43.03
15750;BME280;7976;52.526;13.326;2022-07-24T11:57:51;101505.28;;;26.12;42.95
15750;BME280;7976;52.526;13.326;2022-07-24T12:00:22;101503.88;;;26.18;43.03
15750;BME280;7976;52.526;13.326;2022-07-24T12:02:55;101488.63;;;26.18;42.80
15750;BME280;7976;52.526;13.326;2022-07-24T12:05:25;101488.63;;;26.18;42.24
15750;BME280;7976;52.526;13.326;2022-07-24T12:07:53;101497.69;;;26.17;42.33
15750;BME280;7976;52.526;13.326;2022-07-24T12:10:22;101491.16;;;26.20;42.64
15750;BME280;7976;52.526;13.326;2022-07-24T12:12:52;101496.00;;;26.26;42.04
15750;BME280;7976;52.526;13.326;2022-07-24T12:15:21;101487.53;;;26.30;42.19
15750;BME280;7976;52.526;13.326;2022-07-24T12:17:56;101485.97;;;26.37;41.87
15750;BME280;7976;52.526;13.326;2022-07-24T12:20:26;101482.72;;;26.43;42.09
15750;BME280;7976;52.526;13.326;2022-07-24T12:22:55;101480.75;;;26.45;41.52
15750;BME280;7976;52.526;13.326;2022-07-24T12:25:23;101480.75;;;26.45;41.70
15750;BME280;7976;52.526;13.326;2022-07-24T12:28:03;101474.66;;;26.53;41.14
15750;BME280;7976;52.526;13.326;2022-07-24T12:30:33;101479.47;;;26.59;41.01
15750;BME280;7976;52.526;13.326;2022-07-24T12:33:06;101467.44;;;26.63;41.03
15750;BME280;7976;52.526;13.326;2022-07-24T12:35:52;101470.59;;;26.68;40.41
15750;BME280;7976;52.526;13.326;2022-07-24T12:38:24;101462.94;;;26.63;40.02
15750;BME280;7976;52.526;13.326;2022-07-24T12:41:00;101458.41;;;26.64;39.80
15750;BME280;7976;52.526;13.326;2022-07-24T12:43:29;101461.25;;;26.72;40.39
15750;BME280;7976;52.526;13.326;2022-07-24T12:46:06;101450.78;;;26.78;40.67
15750;BME280;7976;52.526;13.326;2022-07-24T12:48:33;101458.16;;;26.86;40.98
15750;BME280;7976;52.526;13.326;2022-07-24T12:51:10;101462.06;;;26.91;40.72
15750;BME280;7976;52.526;13.326;2022-07-24T12:53:41;101455.28;;;26.97;40.63
15750;BME280;7976;52.526;13.326;2022-07-24T12:56:14;101447.63;;;27.02;40.52
15750;BME280;7976;52.526;13.326;2022-07-24T12:58:57;101451.59;;;27.07;40.82